Lehigh Valley International Airport
KABE : rendu visible

Aérodrome :











RETROUVEZ-NOUS SUR...

 
LOGIN :

S'inscrire | Disclaimer

   EN    FR    IT 

 









Légende :    VFR   VFR Marginal   IFR   IFR Intensif   IFR Très Intensif
Visi : 
Plafond : 
>= 8 km
>= 3000ft
5 à 8 km
1000 à 3000 ft
1500m à 5 km
500 à 1000 ft
800 à 1500m
200 à 500 ft
< 800m
< 200 ft
Symboles :   Orages  Brouillard  Fortes neiges  Fortes précipitations  Vent > 20 kt







- Altitude de l'aérodrome : 393 ft
- Code IATA : ABE


KABE - Lehigh Valley International

DERNIER METAR :
  • 251151Z 06010KT 10SM BKN080 18/13 A3028 RMK AO2 SLP253 T01830133 10183 20144 53014

METARs EXPIRÉS :
  • 251051Z 04003KT 10SM BKN070 16/13 A3026 RMK AO2 SLP245 T01610128
  • 250951Z 02003KT 10SM CLR 15/12 A3025 RMK AO2 SLP241 T01500122

TAF KABE
Valide du 25 à 12h jusqu'au 26 à 12h UTC


251120Z 2512/2612 03006KT P6SM SCT060
FM251800 06010KT P6SM BKN050
FM260000 07005KT P6SM SCT050
Pas de NOTAMs connus pour ce terrain.



MET'MAP, la Météo Aéronautique d'un coup d'oeil ! - Copyright ORBIFLY Décembre 2007 - Disclaimer

ORBIFLY MET'MAP TEAM :

Programmation & Développement : Alexandra Zaïnal
Conception & Développement : Baudouin d'Aumeries
Co-Programmation & Développement : Marc-Olivier Méhu
Soutien technique & logistique : Manuel Goepfert

Contact : metmap@orbifly.com




SOURCES & CREDITS :

   NOAA       Earth
Advisory